Time;durP1;ratioP1;P1;durP2;ratioP2;P2;SDS_P1;SDS_P2;PMS_P1;PMS_P2;Temp;Humidity;BMP_temperature;BMP_pressure;BME280_temperature;BME280_humidity;BME280_pressure;Samples;Min_cycle;Max_cycle;Signal;HPM_P1;HPM_P2
2023/03/28 00:02:17;;;;;;;2.05;1.58;;;1.40;99.90;;;;;;7396314;19;20956;-87
2023/03/28 00:04:43;;;;;;;1.77;1.67;;;1.50;99.90;;;;;;7392163;19;20309;-80
2023/03/28 00:07:08;;;;;;;3.03;1.60;;;1.50;99.90;;;;;;7394137;19;20312;-81
2023/03/28 00:09:34;;;;;;;2.50;1.50;;;1.50;99.90;;;;;;7392381;19;20854;-83
2023/03/28 00:12:00;;;;;;;2.00;1.40;;;1.60;99.90;;;;;;7393340;19;20329;-84
2023/03/28 00:14:25;;;;;;;2.40;1.60;;;1.60;99.90;;;;;;7391867;19;20309;-81
2023/03/28 00:16:51;;;;;;;2.90;1.43;;;1.60;99.90;;;;;;7397514;19;20352;-80
2023/03/28 00:19:19;;;;;;;2.47;1.33;;;1.60;99.90;;;;;;7396214;19;20313;-82
2023/03/28 00:21:46;;;;;;;1.98;1.27;;;1.60;99.90;;;;;;7394246;19;21016;-86
2023/03/28 00:24:13;;;;;;;1.40;1.30;;;1.50;99.90;;;;;;7392035;19;20616;-82
2023/03/28 00:26:39;;;;;;;2.40;1.15;;;1.50;99.90;;;;;;7392586;19;20349;-83
2023/03/28 00:29:07;;;;;;;1.13;1.02;;;1.50;99.90;;;;;;7393283;19;20849;-86
2023/03/28 00:31:36;;;;;;;1.10;1.00;;;1.50;99.90;;;;;;7390886;19;20312;-80
2023/03/28 00:34:01;;;;;;;0.90;0.90;;;1.50;99.90;;;;;;7390983;19;20912;-84
2023/03/28 00:36:28;;;;;;;0.90;0.90;;;1.50;99.90;;;;;;7386512;19;20329;-81
2023/03/28 00:38:56;;;;;;;2.97;1.10;;;1.40;99.90;;;;;;7390004;19;20321;-85
2023/03/28 00:41:25;;;;;;;1.88;1.00;;;1.40;99.90;;;;;;7388902;19;20315;-86
2023/03/28 00:43:52;;;;;;;2.05;1.00;;;1.40;99.90;;;;;;7369824;19;20438;-81
2023/03/28 00:46:21;;;;;;;2.05;0.88;;;1.50;99.90;;;;;;7391240;19;20309;-85
2023/03/28 00:48:51;;;;;;;0.75;0.75;;;1.40;99.90;;;;;;7391088;19;20304;-84
2023/03/28 00:51:28;;;;;;;1.95;0.90;;;1.40;99.90;;;;;;7387522;19;22149;-80
2023/03/28 00:53:56;;;;;;;3.30;0.97;;;1.50;99.90;;;;;;7393474;19;20336;-86
2023/03/28 00:56:22;;;;;;;1.58;1.00;;;1.40;99.90;;;;;;7389053;19;20320;-81
2023/03/28 00:58:48;;;;;;;0.77;0.70;;;1.40;99.90;;;;;;7388351;19;20350;-81
2023/03/28 01:01:14;;;;;;;0.63;0.63;;;1.40;99.90;;;;;;7386425;19;20320;-82
2023/03/28 01:03:45;;;;;;;1.23;1.00;;;1.30;99.90;;;;;;7390741;19;20333;-84
2023/03/28 01:06:14;;;;;;;0.90;0.90;;;1.30;99.90;;;;;;7380557;19;20351;-81
2023/03/28 01:08:41;;;;;;;1.10;0.80;;;1.30;99.90;;;;;;7388472;19;20304;-80
2023/03/28 01:11:06;;;;;;;1.10;0.80;;;1.30;99.90;;;;;;7390354;19;20325;-81
2023/03/28 01:13:36;;;;;;;1.85;0.80;;;1.30;99.90;;;;;;7390290;19;20312;-83
2023/03/28 01:16:03;;;;;;;0.95;0.85;;;1.30;99.90;;;;;;7389329;19;20360;-84
2023/03/28 01:18:33;;;;;;;0.88;0.82;;;1.30;99.90;;;;;;7390697;19;20375;-86
2023/03/28 01:21:05;;;;;;;0.88;0.88;;;1.30;99.90;;;;;;7391284;19;20356;-84
2023/03/28 01:23:56;;;;;;;1.60;0.80;;;1.30;99.90;;;;;;7397713;19;20356;-87
2023/03/28 01:27:05;;;;;;;0.65;0.65;;;1.00;99.90;;;;;;7305682;19;2004490;-85
2023/03/28 01:30:22;;;;;;;0.77;0.77;;;0.70;99.90;;;;;;7275568;19;2004434;-86
2023/03/28 01:37:25;;;;;;;0.77;0.68;;;0.30;99.90;;;;;;7406504;19;20349;-84
2023/03/28 01:40:45;;;;;;;0.50;0.50;;;0.20;99.90;;;;;;7287481;19;2004326;-83
2023/03/28 01:43:56;;;;;;;0.60;0.60;;;0.10;99.90;;;;;;7396882;19;20344;-85
2023/03/28 01:46:37;;;;;;;0.60;0.60;;;0.20;99.90;;;;;;7407964;19;20323;-87
2023/03/28 01:49:41;;;;;;;1.23;0.60;;;0.10;99.90;;;;;;7383341;19;20321;-84
2023/03/28 01:52:39;;;;;;;0.70;0.70;;;0.10;99.90;;;;;;7375629;19;20398;-86
2023/03/28 01:55:40;;;;;;;0.70;0.60;;;0.10;99.90;;;;;;7177292;19;2004494;-88
2023/03/28 01:58:43;;;;;;;0.90;0.80;;;0.20;99.90;;;;;;7298695;19;2004106;-86
2023/03/28 02:02:21;;;;;;;0.60;0.60;;;0.10;99.90;;;;;;6976702;19;2004170;-85
2023/03/28 02:05:41;;;;;;;2.00;0.80;;;0.10;99.90;;;;;;7097668;19;2004453;-82
2023/03/28 02:08:12;;;;;;;0.90;0.80;;;0.10;99.90;;;;;;7391281;19;20319;-81
2023/03/28 02:10:42;;;;;;;0.70;0.70;;;0.00;99.90;;;;;;7392840;19;20311;-80
2023/03/28 02:13:42;;;;;;;0.65;0.65;;;0.00;99.90;;;;;;7289845;19;2004277;-83
2023/03/28 02:17:08;;;;;;;0.60;0.60;;;0.00;99.90;;;;;;7292793;19;2004420;-86
2023/03/28 02:19:38;;;;;;;0.60;0.60;;;0.10;99.90;;;;;;7402977;19;20652;-82
2023/03/28 02:22:40;;;;;;;0.80;0.80;;;0.10;99.90;;;;;;7289887;19;2004219;-82
2023/03/28 02:25:13;;;;;;;0.73;0.73;;;0.00;99.90;;;;;;7348550;19;20321;-83
2023/03/28 02:28:08;;;;;;;0.80;0.70;;;0.00;99.90;;;;;;7285659;19;2004398;-84
2023/03/28 02:30:54;;;;;;;0.77;0.77;;;-0.10;99.90;;;;;;7288404;19;2004405;-81
2023/03/28 02:33:37;;;;;;;0.90;0.90;;;-0.10;99.90;;;;;;7385571;19;20324;-82
2023/03/28 02:36:27;;;;;;;1.00;0.77;;;-0.10;99.90;;;;;;7387340;19;20315;-87
2023/03/28 02:39:15;;;;;;;0.70;0.70;;;-0.10;99.90;;;;;;7286709;19;2004230;-80
2023/03/28 02:41:51;;;;;;;0.77;0.77;;;-0.10;99.90;;;;;;7391297;19;20760;-82
2023/03/28 02:44:44;;;;;;;0.60;0.60;;;-0.20;99.90;;;;;;7387720;19;20372;-81
2023/03/28 02:47:24;;;;;;;1.40;0.90;;;-0.20;99.90;;;;;;7284024;19;2004218;-83
2023/03/28 02:50:07;;;;;;;0.70;0.70;;;-0.20;99.90;;;;;;7287538;19;2004297;-79
2023/03/28 02:53:11;;;;;;;0.90;0.80;;;-0.20;99.90;;;;;;7391589;19;20325;-80
2023/03/28 02:55:55;;;;;;;2.15;0.88;;;-0.30;99.90;;;;;;7303699;19;2004349;-77
2023/03/28 02:58:48;;;;;;;0.80;0.80;;;-0.20;99.90;;;;;;7287343;19;2004357;-78
2023/03/28 03:01:14;;;;;;;2.10;0.70;;;-0.20;99.90;;;;;;7377537;19;20308;-86
2023/03/28 03:04:07;;;;;;;0.80;0.80;;;-0.30;99.90;;;;;;7369266;19;20344;-85
2023/03/28 03:06:35;;;;;;;2.40;0.80;;;-0.30;99.90;;;;;;7345352;19;20938;-83
2023/03/28 03:09:03;;;;;;;1.02;0.90;;;-0.20;99.90;;;;;;7374097;19;20336;-88
2023/03/28 03:11:31;;;;;;;1.37;1.00;;;-0.30;99.90;;;;;;7378847;19;20321;-85
2023/03/28 03:13:59;;;;;;;1.60;0.90;;;-0.30;99.90;;;;;;7394923;19;20316;-84
2023/03/28 03:16:29;;;;;;;0.80;0.80;;;-0.20;99.90;;;;;;7397922;19;20308;-90
2023/03/28 03:18:57;;;;;;;1.50;1.00;;;-0.20;99.90;;;;;;7399881;19;20304;-89
2023/03/28 03:21:24;;;;;;;1.25;0.90;;;-0.10;99.90;;;;;;7284051;19;2004360;-90
2023/03/28 03:23:57;;;;;;;2.55;1.10;;;-0.10;99.90;;;;;;7411562;19;20308;-92
2023/03/28 03:26:28;;;;;;;3.90;1.10;;;-0.10;99.90;;;;;;7341506;19;20321;-91
2023/03/28 03:29:01;;;;;;;1.65;0.80;;;-0.10;99.90;;;;;;7398348;19;20315;-89
2023/03/28 03:31:32;;;;;;;0.80;0.80;;;0.00;99.90;;;;;;7404676;19;20428;-87
2023/03/28 03:34:19;;;;;;;2.05;0.98;;;-0.10;99.90;;;;;;7290717;19;2004411;-92
2023/03/28 03:36:53;;;;;;;0.90;0.90;;;-0.10;99.90;;;;;;7401447;19;20378;-86
2023/03/28 03:39:20;;;;;;;1.25;1.15;;;-0.20;99.90;;;;;;7405978;19;20345;-82
2023/03/28 03:41:46;;;;;;;0.93;0.80;;;-0.10;99.90;;;;;;7400943;19;20346;-86
2023/03/28 03:44:11;;;;;;;0.90;0.90;;;-0.10;99.90;;;;;;7386932;19;20400;-79
2023/03/28 03:46:37;;;;;;;1.60;0.90;;;-0.10;99.90;;;;;;7387098;19;20317;-80
2023/03/28 03:49:03;;;;;;;3.60;1.00;;;-0.10;99.90;;;;;;7390836;19;20864;-78
2023/03/28 03:51:28;;;;;;;1.53;1.17;;;-0.10;99.90;;;;;;7393081;19;20312;-82
2023/03/28 03:53:58;;;;;;;2.65;1.27;;;-0.10;99.90;;;;;;7390737;19;20369;-83
2023/03/28 03:56:32;;;;;;;0.90;0.85;;;-0.10;99.90;;;;;;7389492;19;20313;-79
2023/03/28 03:58:59;;;;;;;1.08;1.00;;;-0.10;99.90;;;;;;7386849;19;20341;-80
2023/03/28 04:01:29;;;;;;;2.60;1.38;;;-0.10;99.90;;;;;;7387691;19;20320;-82
2023/03/28 04:04:06;;;;;;;1.00;1.00;;;-0.20;99.90;;;;;;7385691;19;20349;-82
2023/03/28 04:06:48;;;;;;;0.98;0.98;;;-0.20;99.90;;;;;;7283789;19;2004289;-79
2023/03/28 04:09:14;;;;;;;1.73;1.13;;;-0.20;99.90;;;;;;7388005;19;20344;-81
2023/03/28 04:11:52;;;;;;;1.27;1.15;;;-0.20;99.90;;;;;;7286592;19;2004415;-80
2023/03/28 04:14:28;;;;;;;1.27;1.10;;;-0.20;99.90;;;;;;7388904;19;20301;-80
2023/03/28 04:17:22;;;;;;;4.20;1.20;;;-0.20;99.90;;;;;;7399426;19;20308;-84
2023/03/28 04:19:48;;;;;;;1.33;1.10;;;-0.20;99.90;;;;;;7301894;19;2004209;-92
2023/03/28 04:22:17;;;;;;;2.63;2.13;;;-0.20;99.90;;;;;;7402591;19;20313;-93
2023/03/28 04:24:48;;;;;;;2.75;2.00;;;-0.20;99.90;;;;;;7297757;19;2004302;-95
2023/03/28 04:27:30;;;;;;;3.75;1.20;;;-0.20;99.90;;;;;;7402080;19;20308;-86
2023/03/28 04:29:59;;;;;;;4.00;1.20;;;-0.20;99.90;;;;;;7399260;19;20316;-89
2023/03/28 04:32:49;;;;;;;2.80;1.40;;;-0.20;99.90;;;;;;7295925;19;2004466;-90
2023/03/28 04:35:22;;;;;;;1.45;0.90;;;-0.10;99.90;;;;;;7296855;19;2004267;-86
2023/03/28 04:37:50;;;;;;;0.98;0.98;;;-0.10;99.90;;;;;;7399046;19;20873;-85
2023/03/28 04:40:20;;;;;;;1.57;1.37;;;-0.10;99.90;;;;;;7396969;19;20321;-92
2023/03/28 04:42:49;;;;;;;1.02;1.02;;;0.00;99.90;;;;;;7294636;19;2004359;-91
2023/03/28 04:45:32;;;;;;;1.30;1.20;;;-0.10;99.90;;;;;;7399168;19;20329;-85
2023/03/28 04:48:06;;;;;;;1.17;1.08;;;0.00;99.90;;;;;;7398337;19;20316;-90
2023/03/28 04:50:31;;;;;;;1.05;1.00;;;0.00;99.90;;;;;;7396583;19;20313;-86
2023/03/28 04:52:57;;;;;;;1.27;1.10;;;0.10;99.90;;;;;;7395977;19;20341;-89
2023/03/28 04:55:24;;;;;;;2.77;1.33;;;0.00;99.90;;;;;;7398787;19;20329;-82
2023/03/28 04:57:50;;;;;;;2.28;1.17;;;0.10;99.90;;;;;;7397563;19;20362;-92
2023/03/28 05:00:21;;;;;;;1.95;1.20;;;0.00;99.90;;;;;;7398660;19;20293;-86
2023/03/28 05:03:17;;;;;;;1.60;1.30;;;0.00;99.90;;;;;;7398136;19;20304;-89
2023/03/28 05:05:54;;;;;;;2.20;1.13;;;0.00;99.90;;;;;;7297407;19;2004172;-84
2023/03/28 05:08:21;;;;;;;1.07;1.07;;;0.10;99.90;;;;;;7396369;19;20397;-83
2023/03/28 05:10:47;;;;;;;1.30;1.17;;;0.10;99.90;;;;;;7399578;19;20331;-88
2023/03/28 05:13:15;;;;;;;2.58;1.23;;;0.00;99.90;;;;;;7395299;19;21174;-84
2023/03/28 05:15:46;;;;;;;1.30;1.20;;;0.10;99.90;;;;;;7395343;19;20655;-93
2023/03/28 05:18:23;;;;;;;1.20;1.10;;;0.10;99.90;;;;;;7292336;19;2004305;-87
2023/03/28 05:20:49;;;;;;;1.65;1.30;;;0.10;99.90;;;;;;7398044;19;20317;-85
2023/03/28 05:23:17;;;;;;;1.20;1.08;;;0.10;99.90;;;;;;7397523;19;20316;-87
2023/03/28 05:25:53;;;;;;;1.30;1.20;;;0.10;99.90;;;;;;7395004;19;20332;-80
2023/03/28 05:28:20;;;;;;;1.38;1.27;;;0.10;99.90;;;;;;7293184;19;2004265;-90
2023/03/28 05:30:49;;;;;;;4.20;1.40;;;0.10;99.90;;;;;;7392614;19;20957;-87
2023/03/28 05:33:15;;;;;;;1.52;1.38;;;0.10;99.90;;;;;;7399935;19;20317;-91
2023/03/28 05:35:42;;;;;;;1.35;1.23;;;0.20;99.90;;;;;;7392447;19;20317;-94
2023/03/28 05:38:07;;;;;;;2.00;1.50;;;0.10;99.90;;;;;;7398455;19;20328;-89
2023/03/28 05:40:35;;;;;;;1.83;1.40;;;0.20;99.90;;;;;;7398303;19;20317;-88
2023/03/28 05:43:00;;;;;;;2.30;1.42;;;0.20;99.90;;;;;;7394900;19;20353;-82
2023/03/28 05:45:26;;;;;;;4.25;1.63;;;0.20;99.90;;;;;;7399681;19;20321;-86
2023/03/28 05:48:05;;;;;;;1.63;1.48;;;0.30;99.90;;;;;;7394028;19;20331;-84
2023/03/28 05:50:31;;;;;;;2.20;1.65;;;0.30;99.90;;;;;;7396249;19;20333;-88
2023/03/28 05:53:03;;;;;;;2.13;1.52;;;0.20;99.90;;;;;;7398645;19;20386;-82
2023/03/28 05:55:29;;;;;;;3.23;1.40;;;0.10;99.90;;;;;;7396356;19;20328;-86
2023/03/28 05:57:56;;;;;;;1.60;1.50;;;0.10;99.90;;;;;;7396132;19;20663;-89
2023/03/28 06:00:25;;;;;;;2.65;1.48;;;0.10;99.90;;;;;;7397014;19;20436;-92
2023/03/28 06:02:53;;;;;;;3.42;1.63;;;0.20;99.90;;;;;;7397957;19;20419;-83
2023/03/28 06:05:28;;;;;;;3.07;1.60;;;0.20;99.90;;;;;;7395376;19;20344;-87
2023/03/28 06:07:56;;;;;;;2.00;1.70;;;0.30;99.90;;;;;;7400151;19;20347;-88
2023/03/28 06:10:24;;;;;;;2.55;1.55;;;0.30;99.90;;;;;;7396735;19;20316;-88
2023/03/28 06:13:00;;;;;;;1.67;1.57;;;0.40;99.90;;;;;;7395606;19;20328;-88
2023/03/28 06:15:26;;;;;;;1.77;1.60;;;0.50;99.90;;;;;;7395359;19;20640;-88
2023/03/28 06:17:52;;;;;;;3.58;1.63;;;0.50;99.90;;;;;;7395763;19;20440;-83
2023/03/28 06:20:20;;;;;;;2.50;1.40;;;0.50;99.90;;;;;;7398881;19;20305;-91
2023/03/28 06:22:46;;;;;;;1.77;1.65;;;0.60;99.90;;;;;;7395314;19;21228;-85
2023/03/28 06:25:11;;;;;;;2.00;1.33;;;0.60;99.90;;;;;;7393828;19;20343;-87
2023/03/28 06:27:37;;;;;;;1.50;1.40;;;0.70;99.90;;;;;;7392915;19;20312;-87
2023/03/28 06:30:03;;;;;;;4.03;1.40;;;0.70;99.90;;;;;;7392466;19;20948;-91
2023/03/28 06:32:32;;;;;;;2.25;1.50;;;0.70;99.90;;;;;;7394332;19;20309;-81
2023/03/28 06:34:58;;;;;;;1.42;1.33;;;0.70;99.90;;;;;;7394987;19;20337;-83
2023/03/28 06:37:24;;;;;;;1.40;1.30;;;0.80;99.90;;;;;;7390101;19;20309;-83
2023/03/28 06:40:02;;;;;;;2.00;1.27;;;0.90;99.90;;;;;;7394038;19;20317;-82
2023/03/28 06:42:29;;;;;;;1.77;1.40;;;0.90;99.90;;;;;;7392814;19;20317;-88
2023/03/28 06:45:06;;;;;;;2.20;1.40;;;1.00;99.90;;;;;;7394142;19;20336;-86
2023/03/28 06:47:40;;;;;;;1.80;1.35;;;1.10;99.90;;;;;;7397664;19;20373;-91
2023/03/28 06:50:07;;;;;;;1.43;1.33;;;1.20;99.90;;;;;;7398239;19;20322;-87
2023/03/28 06:52:42;;;;;;;1.60;1.50;;;1.10;99.90;;;;;;7394902;19;20305;-81
2023/03/28 06:55:08;;;;;;;1.30;1.20;;;1.10;99.90;;;;;;7387384;19;20320;-88
2023/03/28 06:57:34;;;;;;;2.25;1.40;;;1.10;99.90;;;;;;7398165;19;20316;-92
2023/03/28 07:00:24;;;;;;;3.95;1.45;;;1.20;99.90;;;;;;7309244;19;2004159;-92
2023/03/28 07:03:25;;;;;;;3.28;1.20;;;1.20;99.90;;;;;;7308353;19;2004457;-90
2023/03/28 07:05:51;;;;;;;1.52;1.15;;;1.20;99.90;;;;;;7393227;19;20834;-82
2023/03/28 07:08:22;;;;;;;1.45;1.30;;;1.20;99.90;;;;;;7391426;19;20293;-83
2023/03/28 07:10:48;;;;;;;1.38;1.27;;;1.20;99.90;;;;;;7389193;19;20310;-81
2023/03/28 07:13:14;;;;;;;1.38;1.17;;;1.20;99.90;;;;;;7389330;19;20311;-82
2023/03/28 07:16:01;;;;;;;2.85;1.50;;;1.20;99.90;;;;;;7285603;19;2004377;-82
2023/03/28 07:18:26;;;;;;;1.58;1.45;;;1.20;99.90;;;;;;7390386;19;20308;-85
2023/03/28 07:20:53;;;;;;;1.50;1.20;;;1.10;99.90;;;;;;7388270;19;20881;-79
2023/03/28 07:23:19;;;;;;;3.63;1.43;;;1.20;99.90;;;;;;7388057;19;20870;-85
2023/03/28 07:25:46;;;;;;;2.00;1.48;;;1.20;99.90;;;;;;7389529;19;20343;-79
2023/03/28 07:28:12;;;;;;;1.60;1.50;;;1.40;99.90;;;;;;7385817;19;20925;-85
2023/03/28 07:30:37;;;;;;;2.50;1.33;;;1.40;99.90;;;;;;7388769;19;20665;-86
2023/03/28 07:33:03;;;;;;;2.60;1.33;;;1.40;99.90;;;;;;7386353;19;20414;-78
2023/03/28 07:35:29;;;;;;;1.77;1.30;;;1.50;99.90;;;;;;7388263;19;20424;-82
2023/03/28 07:37:55;;;;;;;1.80;1.38;;;1.60;99.90;;;;;;7386465;19;20312;-81
2023/03/28 07:40:33;;;;;;;2.25;1.23;;;1.70;99.90;;;;;;7389560;19;20312;-84
2023/03/28 07:42:59;;;;;;;1.45;1.30;;;1.80;99.90;;;;;;7390172;19;20308;-81
2023/03/28 07:45:27;;;;;;;1.35;1.10;;;1.90;99.90;;;;;;7386879;19;20368;-85
2023/03/28 07:47:53;;;;;;;1.73;1.20;;;1.90;99.90;;;;;;7389609;19;20356;-80
2023/03/28 07:50:19;;;;;;;2.45;1.23;;;1.70;99.90;;;;;;7390166;19;20325;-84
2023/03/28 07:52:45;;;;;;;1.13;1.00;;;1.80;99.90;;;;;;7389937;19;20338;-83
2023/03/28 07:55:12;;;;;;;1.60;1.02;;;1.80;99.90;;;;;;7388610;19;20317;-80
2023/03/28 07:57:43;;;;;;;2.40;1.20;;;1.90;99.90;;;;;;7387607;19;20297;-79
2023/03/28 08:00:26;;;;;;;1.25;1.08;;;1.80;99.90;;;;;;7286807;19;2004186;-84
2023/03/28 08:03:12;;;;;;;2.00;1.27;;;1.90;99.90;;;;;;7389387;19;20296;-84
2023/03/28 08:05:38;;;;;;;1.38;0.90;;;2.00;99.90;;;;;;7388133;19;20339;-80
2023/03/28 08:08:06;;;;;;;2.13;1.20;;;2.10;99.90;;;;;;7388421;19;20954;-83
2023/03/28 08:10:32;;;;;;;1.57;1.10;;;2.20;99.90;;;;;;7387778;19;20300;-84
2023/03/28 08:12:59;;;;;;;1.20;1.10;;;2.40;99.90;;;;;;7389464;19;20855;-81
2023/03/28 08:15:24;;;;;;;2.00;1.13;;;2.40;99.90;;;;;;7388092;19;20344;-79
2023/03/28 08:17:50;;;;;;;2.10;1.30;;;2.50;99.90;;;;;;7387951;19;20304;-81
2023/03/28 08:20:18;;;;;;;1.10;1.00;;;2.50;99.90;;;;;;7386591;19;20320;-83
2023/03/28 08:22:44;;;;;;;1.23;1.10;;;2.40;99.90;;;;;;7390007;19;21192;-81
2023/03/28 08:25:32;;;;;;;1.08;0.80;;;2.30;99.90;;;;;;7286500;19;2004454;-84
2023/03/28 08:27:59;;;;;;;1.75;1.10;;;2.30;99.90;;;;;;7388603;19;20312;-82
2023/03/28 08:30:24;;;;;;;1.83;0.90;;;2.40;99.90;;;;;;7388697;19;20335;-84
2023/03/28 08:32:56;;;;;;;1.63;0.98;;;2.50;99.90;;;;;;7387220;19;20304;-80
2023/03/28 08:35:22;;;;;;;1.00;0.97;;;2.60;99.90;;;;;;7386245;19;20345;-78
2023/03/28 08:37:52;;;;;;;1.45;1.20;;;2.70;99.90;;;;;;7387982;19;20309;-82
2023/03/28 08:40:19;;;;;;;2.00;1.23;;;2.90;99.90;;;;;;7391113;19;20328;-81
2023/03/28 08:42:45;;;;;;;2.70;1.10;;;2.90;99.90;;;;;;7390074;19;20327;-81
2023/03/28 08:45:37;;;;;;;1.48;1.10;;;3.00;99.90;;;;;;7390296;19;20313;-82
2023/03/28 08:48:09;;;;;;;2.40;1.40;;;3.30;99.90;;;;;;7283704;19;2004374;-81
2023/03/28 08:51:01;;;;;;;1.20;1.10;;;3.30;99.90;;;;;;7390450;19;20312;-85
2023/03/28 08:53:36;;;;;;;1.45;1.10;;;3.30;99.90;;;;;;7289596;19;2004603;-83
2023/03/28 08:56:03;;;;;;;1.55;1.20;;;3.30;99.90;;;;;;7390542;19;20401;-87
2023/03/28 08:58:33;;;;;;;2.55;1.23;;;3.20;99.90;;;;;;7392187;19;20391;-84
2023/03/28 09:00:59;;;;;;;1.00;1.00;;;3.40;99.90;;;;;;7392923;19;20333;-83
2023/03/28 09:03:24;;;;;;;1.80;1.25;;;3.40;99.90;;;;;;7394463;19;20304;-85
2023/03/28 09:06:15;;;;;;;1.60;1.30;;;3.50;99.90;;;;;;7393107;19;20751;-82
2023/03/28 09:09:10;;;;;;;0.98;0.95;;;3.20;99.90;;;;;;7391006;19;20340;-82
2023/03/28 09:12:06;;;;;;;0.93;0.93;;;3.20;99.90;;;;;;7292027;19;2004247;-79
2023/03/28 09:14:51;;;;;;;1.35;1.02;;;3.20;99.90;;;;;;7296212;19;2004260;-81
2023/03/28 09:18:06;;;;;;;1.20;1.10;;;3.30;99.90;;;;;;7393721;19;20316;-80
2023/03/28 09:21:08;;;;;;;1.17;1.05;;;3.40;99.90;;;;;;7180018;19;2004387;-81
2023/03/28 09:23:50;;;;;;;1.45;1.10;;;3.30;99.90;;;;;;7285830;19;2004697;-79
2023/03/28 09:26:22;;;;;;;1.30;1.10;;;3.00;99.90;;;;;;7401433;19;20363;-90
2023/03/28 09:29:10;;;;;;;2.40;1.30;;;3.00;99.90;;;;;;7303900;19;2004706;-85
2023/03/28 09:31:46;;;;;;;0.98;0.98;;;2.80;99.90;;;;;;7408253;19;20332;-84
2023/03/28 09:34:20;;;;;;;1.60;1.17;;;3.20;99.90;;;;;;7403988;19;20315;-86
2023/03/28 09:36:45;;;;;;;1.30;1.20;;;3.40;99.90;;;;;;7406528;19;20320;-88
2023/03/28 09:39:31;;;;;;;1.88;1.25;;;3.50;99.90;;;;;;7407575;19;20348;-88
2023/03/28 09:42:06;;;;;;;1.30;0.95;;;3.60;99.90;;;;;;7269923;19;2004191;-80
2023/03/28 09:45:22;;;;;;;1.10;1.00;;;3.50;99.90;;;;;;7273727;19;2004495;-81
2023/03/28 09:48:04;;;;;;;3.30;0.97;;;3.50;99.90;;;;;;7275607;19;2004478;-84
2023/03/28 09:50:38;;;;;;;1.10;1.10;;;3.50;99.90;;;;;;7398197;19;20332;-88
2023/03/28 09:53:04;;;;;;;3.30;0.90;;;3.40;99.90;;;;;;7406388;19;20787;-93
2023/03/28 09:55:31;;;;;;;1.27;1.10;;;3.50;99.90;;;;;;7404472;19;20340;-87
2023/03/28 09:58:05;;;;;;;1.10;1.00;;;3.30;99.90;;;;;;7403413;19;20324;-84
2023/03/28 10:00:38;;;;;;;0.80;0.80;;;3.30;99.90;;;;;;7402339;19;20317;-86
2023/03/28 10:03:31;;;;;;;1.00;0.90;;;3.30;99.90;;;;;;7310472;19;2004219;-87
2023/03/28 10:05:58;;;;;;;2.67;1.10;;;3.60;99.90;;;;;;7410144;19;20829;-84
2023/03/28 10:08:39;;;;;;;0.90;0.90;;;3.80;99.90;;;;;;7413813;19;20339;-86
2023/03/28 10:11:21;;;;;;;1.23;1.13;;;3.90;99.90;;;;;;7302297;19;2004175;-90
2023/03/28 10:13:49;;;;;;;1.33;1.10;;;3.90;99.90;;;;;;7404778;19;20356;-85
2023/03/28 10:16:19;;;;;;;1.20;1.10;;;3.90;99.90;;;;;;7399538;19;20373;-84
2023/03/28 10:18:56;;;;;;;0.82;0.80;;;3.90;99.90;;;;;;7295977;19;2004503;-80
2023/03/28 10:21:39;;;;;;;1.00;0.90;;;3.90;99.90;;;;;;7396117;19;20324;-80
2023/03/28 10:24:10;;;;;;;0.80;0.80;;;3.80;99.90;;;;;;7398532;19;20347;-79
2023/03/28 10:26:36;;;;;;;2.80;0.80;;;3.60;99.90;;;;;;7398895;19;20324;-85
2023/03/28 10:29:05;;;;;;;0.90;0.90;;;3.60;99.90;;;;;;7405238;19;20336;-89
2023/03/28 10:31:31;;;;;;;1.00;1.00;;;3.30;99.90;;;;;;7421011;19;20344;-88
2023/03/28 10:34:28;;;;;;;2.45;0.90;;;3.40;99.90;;;;;;7419492;19;20308;-87
2023/03/28 10:37:00;;;;;;;0.80;0.80;;;3.60;99.90;;;;;;7316586;19;2004235;-87
2023/03/28 10:39:39;;;;;;;0.93;0.80;;;4.00;99.90;;;;;;7419789;19;20393;-87
2023/03/28 10:42:41;;;;;;;0.90;0.90;;;4.50;99.90;;;;;;7315162;19;2004263;-88
2023/03/28 10:45:22;;;;;;;0.90;0.90;;;4.10;99.90;;;;;;7417472;19;20352;-89
2023/03/28 10:47:49;;;;;;;1.63;0.87;;;4.10;99.90;;;;;;7415845;19;20342;-87
2023/03/28 10:50:20;;;;;;;0.90;0.90;;;4.20;99.90;;;;;;7415319;19;20313;-87
2023/03/28 10:52:52;;;;;;;0.85;0.85;;;4.10;99.90;;;;;;7419021;19;20329;-87
2023/03/28 10:55:25;;;;;;;1.10;1.10;;;4.20;99.90;;;;;;7314961;19;2004268;-86
2023/03/28 10:58:36;;;;;;;0.80;0.80;;;4.40;99.90;;;;;;7419100;19;20309;-87
2023/03/28 11:01:16;;;;;;;0.85;0.82;;;4.90;99.90;;;;;;7315611;19;2003971;-87
2023/03/28 11:04:02;;;;;;;1.08;0.98;;;5.10;99.90;;;;;;7417508;19;20313;-88
2023/03/28 11:06:48;;;;;;;0.90;0.90;;;5.40;99.90;;;;;;7315041;19;2004187;-91
2023/03/28 11:09:24;;;;;;;1.10;1.00;;;5.80;99.90;;;;;;7416315;19;20301;-88
2023/03/28 11:12:42;;;;;;;0.90;0.90;;;5.60;99.90;;;;;;7312081;19;2004026;-90
2023/03/28 11:15:25;;;;;;;1.15;0.95;;;4.70;99.90;;;;;;7313551;19;2004018;-87
2023/03/28 11:18:37;;;;;;;0.85;0.85;;;4.70;99.90;;;;;;7315116;19;2004224;-89
2023/03/28 11:21:42;;;;;;;0.97;0.77;;;4.60;99.90;;;;;;7315447;19;2004437;-89
2023/03/28 11:24:16;;;;;;;0.90;0.90;;;4.70;99.90;;;;;;7315703;19;2003963;-88
2023/03/28 11:27:16;;;;;;;0.77;0.77;;;4.90;99.90;;;;;;7316379;19;2004344;-87
2023/03/28 11:29:59;;;;;;;1.60;0.80;;;5.50;99.90;;;;;;7313600;19;2004384;-85
2023/03/28 11:32:40;;;;;;;1.73;0.90;;;5.80;99.90;;;;;;7414995;19;20384;-86
2023/03/28 11:35:12;;;;;;;1.02;0.98;;;5.30;99.90;;;;;;7416835;19;20856;-89
2023/03/28 11:38:03;;;;;;;0.77;0.77;;;5.50;99.90;;;;;;7418419;19;20324;-89
2023/03/28 11:41:09;;;;;;;0.70;0.70;;;5.80;99.90;;;;;;7315323;19;2004294;-87
2023/03/28 11:44:25;;;;;;;0.85;0.85;;;6.00;99.90;;;;;;7212297;19;2004364;-88
2023/03/28 11:47:02;;;;;;;1.15;0.70;;;6.60;99.90;;;;;;7313451;19;2003934;-88
2023/03/28 11:49:37;;;;;;;1.60;0.80;;;6.90;99.90;;;;;;7415868;19;20332;-86
2023/03/28 11:52:30;;;;;;;0.90;0.90;;;7.60;99.90;;;;;;7416669;19;20316;-86
2023/03/28 11:55:21;;;;;;;1.20;0.80;;;6.70;99.90;;;;;;7313989;19;2003915;-89
2023/03/28 11:57:56;;;;;;;0.80;0.80;;;6.80;99.90;;;;;;7416257;19;20319;-86
2023/03/28 12:00:30;;;;;;;0.68;0.68;;;6.40;99.90;;;;;;7313550;19;2004101;-85
2023/03/28 12:03:07;;;;;;;0.95;0.75;;;6.20;99.90;;;;;;7417623;19;20797;-85
2023/03/28 12:05:37;;;;;;;0.65;0.65;;;5.90;99.90;;;;;;7416100;19;20754;-90
2023/03/28 12:08:13;;;;;;;0.88;0.80;;;5.80;99.90;;;;;;7416988;19;20305;-90
2023/03/28 12:10:41;;;;;;;0.70;0.70;;;6.20;99.90;;;;;;7416642;19;20317;-88
2023/03/28 12:13:33;;;;;;;1.40;0.80;;;6.80;99.90;;;;;;7417061;19;20327;-90
2023/03/28 12:16:14;;;;;;;2.65;1.00;;;6.50;99.90;;;;;;7313145;19;2004537;-88
2023/03/28 12:18:43;;;;;;;0.85;0.85;;;6.90;99.90;;;;;;7416554;19;20333;-88
2023/03/28 12:21:50;;;;;;;0.85;0.85;;;7.00;99.90;;;;;;7316087;19;2004109;-88
2023/03/28 12:24:37;;;;;;;0.77;0.77;;;6.90;99.90;;;;;;7312784;19;2004006;-89
2023/03/28 12:27:42;;;;;;;0.77;0.77;;;6.90;99.90;;;;;;7416306;19;20329;-88
2023/03/28 12:30:26;;;;;;;0.90;0.90;;;6.80;99.90;;;;;;7313588;19;2003867;-89
2023/03/28 12:33:14;;;;;;;2.00;0.80;;;6.50;99.70;;;;;;7312936;19;2003973;-88
2023/03/28 12:36:02;;;;;;;0.95;0.80;;;6.30;99.90;;;;;;7416320;19;20338;-86
2023/03/28 12:38:43;;;;;;;0.75;0.75;;;6.90;99.90;;;;;;7313220;19;2004361;-87
2023/03/28 12:41:30;;;;;;;1.10;0.80;;;6.90;99.90;;;;;;7313569;19;2004234;-86
2023/03/28 12:44:02;;;;;;;0.73;0.73;;;6.60;99.90;;;;;;7416508;19;20321;-89
2023/03/28 12:47:06;;;;;;;0.80;0.80;;;6.10;99.10;;;;;;7415478;19;20325;-89
2023/03/28 12:49:53;;;;;;;1.20;1.10;;;6.10;99.90;;;;;;7313648;19;2004002;-86
2023/03/28 12:52:46;;;;;;;1.10;0.98;;;6.10;99.90;;;;;;7417063;19;20340;-89
2023/03/28 12:55:24;;;;;;;0.80;0.80;;;6.10;99.90;;;;;;7209676;19;2004242;-88
2023/03/28 12:57:53;;;;;;;1.00;1.00;;;5.90;99.80;;;;;;7415504;19;20368;-89
2023/03/28 13:01:07;;;;;;;1.30;1.00;;;5.90;99.90;;;;;;7313614;19;2004520;-88
2023/03/28 13:03:50;;;;;;;0.90;0.90;;;6.00;99.90;;;;;;7415905;19;20321;-87
2023/03/28 13:06:41;;;;;;;0.90;0.90;;;5.90;99.90;;;;;;7415607;19;20752;-90
2023/03/28 13:09:22;;;;;;;0.80;0.80;;;6.40;99.90;;;;;;7309631;19;2004372;-91
2023/03/28 13:12:06;;;;;;;1.52;1.42;;;6.70;99.80;;;;;;7414097;19;20309;-88
2023/03/28 13:14:39;;;;;;;0.80;0.80;;;6.90;99.30;;;;;;7310980;19;2004133;-89
2023/03/28 13:17:22;;;;;;;0.90;0.90;;;7.00;99.90;;;;;;7411493;19;20428;-90
2023/03/28 13:20:00;;;;;;;1.92;1.00;;;6.60;98.40;;;;;;7413971;19;20348;-88
2023/03/28 13:22:32;;;;;;;1.60;0.98;;;6.20;98.70;;;;;;7311631;19;2004459;-89
2023/03/28 13:25:26;;;;;;;0.80;0.80;;;6.40;99.90;;;;;;7414292;19;20351;-89
2023/03/28 13:27:56;;;;;;;0.70;0.70;;;6.20;99.90;;;;;;7299118;19;2003989;-79
2023/03/28 13:30:27;;;;;;;1.10;0.90;;;6.10;99.10;;;;;;7383935;19;20309;-80
2023/03/28 13:33:15;;;;;;;0.70;0.70;;;6.10;99.90;;;;;;7385866;19;20357;-82
2023/03/28 13:35:59;;;;;;;0.80;0.80;;;5.90;98.70;;;;;;7381806;19;20328;-83
2023/03/28 13:38:27;;;;;;;0.80;0.80;;;5.60;98.70;;;;;;7282296;19;2004342;-83
2023/03/28 13:41:05;;;;;;;0.80;0.80;;;6.20;99.70;;;;;;7384914;19;21225;-80
2023/03/28 13:43:37;;;;;;;1.00;0.90;;;6.70;98.20;;;;;;7384890;19;20305;-81
2023/03/28 13:46:08;;;;;;;0.80;0.80;;;6.70;97.00;;;;;;7383357;19;20902;-88